Weather Underground® Station Historical Data


Station Historical Data For Bruceton, TN. (K3JAE's Weather Station - KTNBRUCE2)
Daily Summary for:  January 2, 2018 Units:  English    Metric   Both
« Previous Day
Next Day »
Daily Weekly Monthly Yearly Custom
  High: Low: Average:
Temperature: 23.6 °F 4.3 °F 13.6 °F
Dew Point: 11.9 °F -2.0 °F 3.1 °F
Humidity: 82% 43% 64%
Wind Speed: 9.2mph 0.0mph 2.2mph
Wind Gust: 9.2mph - -
Wind- - ENE
Pressure: 30.82 in 30.44 in -
Precipitation: 0.00 in    
Historical Graphs
 
 
Tabular Data for:  January 2, 2018
Time Temperature Dew Point Pressure Wind Wind Speed Wind Gust Humidity Rainfall Rate (Hourly) solar Conditions
00:01 8.5 °F -1.2 °F 30.79 in NE 8.1 mph 8.1 mph 64% 0.00 in 0.0 W/m2 CLR
00:02 8.5 °F -1.2 °F 30.79 in NE 8.1 mph 8.1 mph 64% 0.00 in 0.0 W/m2 CLR
00:07 8.4 °F -1.3 °F 30.79 in NNE 3.5 mph 3.5 mph 64% 0.00 in 0.0 W/m2 CLR
00:10 8.4 °F -1.3 °F 30.79 in ENE 4.0 mph 4.0 mph 64% 0.00 in 0.0 W/m2 CLR
00:14 8.4 °F -1.3 °F 30.79 in ENE 3.5 mph 3.5 mph 64% 0.00 in 0.0 W/m2 CLR
00:17 8.4 °F -1.6 °F 30.79 in ENE 5.8 mph 5.8 mph 63% 0.00 in 0.0 W/m2 CLR
00:19 8.3 °F -1.7 °F 30.79 in ENE 4.0 mph 4.0 mph 63% 0.00 in 0.0 W/m2 CLR
00:23 8.3 °F -1.4 °F 30.79 in ENE 3.5 mph 3.5 mph 64% 0.00 in 0.0 W/m2 CLR
00:26 8.3 °F -1.4 °F 30.79 in ENE 4.6 mph 4.6 mph 64% 0.00 in 0.0 W/m2 CLR
00:30 8.2 °F -1.5 °F 30.79 in ENE 2.3 mph 2.3 mph 64% 0.00 in 0.0 W/m2 CLR
00:34 8.1 °F -1.2 °F 30.79 in ENE 3.5 mph 3.5 mph 65% 0.00 in 0.0 W/m2 CLR
00:39 8.1 °F -1.6 °F 30.79 in ENE 1.2 mph 1.2 mph 64% 0.00 in 0.0 W/m2 CLR
00:40 8.1 °F -1.2 °F 30.79 in ENE 2.0 mph 2.0 mph 65% 0.00 in 0.0 W/m2 CLR
00:45 8.0 °F -1.3 °F 30.79 in ENE 3.5 mph 3.5 mph 65% 0.00 in 0.0 W/m2 CLR
00:51 8.0 °F -1.3 °F 30.79 in ENE 4.0 mph 4.0 mph 65% 0.00 in 0.0 W/m2 CLR
00:56 7.9 °F -1.8 °F 30.79 in ENE 3.5 mph 3.5 mph 64% 0.00 in 0.0 W/m2 CLR
00:57 7.9 °F -1.4 °F 30.79 in ENE 5.0 mph 5.0 mph 65% 0.00 in 0.0 W/m2 CLR
01:02 7.9 °F -1.4 °F 30.79 in ENE 3.5 mph 3.5 mph 65% 0.00 in 0.0 W/m2 CLR
01:08 7.8 °F -1.5 °F 30.79 in NNE 5.8 mph 5.8 mph 65% 0.00 in 0.0 W/m2 CLR
01:13 7.8 °F -1.9 °F 30.79 in NNE 4.6 mph 4.6 mph 64% 0.00 in 0.0 W/m2 CLR
01:16 7.8 °F -1.5 °F 30.79 in NE 3.5 mph 3.5 mph 65% 0.00 in 0.0 W/m2 CLR
01:21 7.8 °F -1.9 °F 30.79 in NE 3.5 mph 3.5 mph 64% 0.00 in 0.0 W/m2 CLR
01:25 7.8 °F -1.9 °F 30.80 in NE 3.5 mph 3.5 mph 64% 0.00 in 0.0 W/m2 CLR
01:32 7.8 °F -1.5 °F 30.80 in NE 1.2 mph 1.2 mph 65% 0.00 in 0.0 W/m2 CLR
01:34 7.8 °F -1.9 °F 30.80 in NE 3.5 mph 3.5 mph 64% 0.00 in 0.0 W/m2 CLR
01:39 7.8 °F -1.9 °F 30.80 in NE 3.5 mph 3.5 mph 64% 0.00 in 0.0 W/m2 CLR
01:41 7.8 °F -1.9 °F 30.80 in NE 3.5 mph 3.5 mph 64% 0.00 in 0.0 W/m2 CLR
01:44 7.8 °F -1.9 °F 30.80 in NE 3.5 mph 3.5 mph 64% 0.00 in 0.0 W/m2 CLR
01:47 7.7 °F -2.0 °F 30.80 in NE 9.2 mph 9.2 mph 64% 0.00 in 0.0 W/m2 CLR
01:52 7.7 °F -2.0 °F 30.81 in NE 5.0 mph 5.0 mph 64% 0.00 in 0.0 W/m2 CLR
01:57 7.7 °F -1.6 °F 30.81 in NE 3.5 mph 3.5 mph 65% 0.00 in 0.0 W/m2 CLR
02:02 7.7 °F -1.6 °F 30.81 in NE 3.5 mph 3.5 mph 65% 0.00 in 0.0 W/m2 CLR
02:04 7.7 °F -1.6 °F 30.81 in NE 4.6 mph 4.6 mph 65% 0.00 in 0.0 W/m2 CLR
02:08 7.7 °F -1.6 °F 30.81 in NE 2.3 mph 2.3 mph 65% 0.00 in 0.0 W/m2 CLR
02:10 7.7 °F -1.6 °F 30.82 in NE 2.0 mph 2.0 mph 65% 0.00 in 0.0 W/m2 CLR
02:15 7.6 °F -1.4 °F 30.82 in NE 1.2 mph 1.2 mph 66% 0.00 in 0.0 W/m2 CLR
02:17 7.5 °F -1.5 °F 30.82 in NE 1.2 mph 1.2 mph 66% 0.00 in 0.0 W/m2 CLR
02:22 7.4 °F -1.6 °F 30.82 in NE 1.2 mph   66% 0.00 in 0.0 W/m2 CLR
02:23 7.4 °F -1.6 °F 30.82 in NE 1.0 mph   66% 0.00 in 0.0 W/m2 CLR
02:29 7.1 °F -1.9 °F 30.81 in NE 1.2 mph 1.2 mph 66% 0.00 in 0.0 W/m2 CLR
02:35 7.0 °F -1.3 °F 30.81 in NE 2.3 mph 2.3 mph 68% 0.00 in 0.0 W/m2 CLR
02:40 6.8 °F -1.5 °F 30.81 in NE 2.3 mph 2.3 mph 68% 0.00 in 0.0 W/m2 CLR
02:45 6.7 °F -1.3 °F 30.81 in NE 2.3 mph 2.3 mph 69% 0.00 in 0.0 W/m2 CLR
02:47 6.7 °F -1.3 °F 30.81 in NE 2.3 mph 2.3 mph 69% 0.00 in 0.0 W/m2 CLR
02:49 6.6 °F -1.4 °F 30.81 in NE 1.2 mph 1.2 mph 69% 0.00 in 0.0 W/m2 CLR
02:54 6.5 °F -1.2 °F 30.81 in NE 1.2 mph   70% 0.00 in 0.0 W/m2 CLR
02:59 6.4 °F -1.3 °F 30.81 in Calm     70% 0.00 in 0.0 W/m2 CLR
03:02 6.3 °F -1.1 °F 30.81 in Calm     71% 0.00 in 0.0 W/m2 CLR
03:04 6.2 °F -1.2 °F 30.81 in Calm     71% 0.00 in 0.0 W/m2 CLR
03:13 6.0 °F -1.4 °F 30.81 in NE 2.3 mph 2.3 mph 71% 0.00 in 0.0 W/m2 CLR
03:14 6.0 °F -1.4 °F 30.81 in NE 1.2 mph 1.2 mph 71% 0.00 in 0.0 W/m2 CLR
03:19 5.9 °F -1.2 °F 30.81 in NE 1.0 mph 1.0 mph 72% 0.00 in 0.0 W/m2 CLR
03:20 5.9 °F -1.2 °F 30.81 in NE 2.3 mph 2.3 mph 72% 0.00 in 0.0 W/m2 CLR
03:26 5.8 °F -1.3 °F 30.81 in Calm     72% 0.00 in 0.0 W/m2 CLR
03:34 5.8 °F -1.0 °F 30.81 in Calm     73% 0.00 in 0.0 W/m2 CLR
03:37 5.7 °F -1.1 °F 30.81 in Calm     73% 0.00 in 0.0 W/m2 CLR
03:39 5.7 °F -1.1 °F 30.81 in Calm     73% 0.00 in 0.0 W/m2 CLR
03:44 5.7 °F -1.1 °F 30.81 in Calm     73% 0.00 in 0.0 W/m2 CLR
03:48 5.6 °F -1.2 °F 30.81 in Calm     73% 0.00 in 0.0 W/m2 CLR
03:51 5.6 °F -1.2 °F 30.81 in Calm     73% 0.00 in 0.0 W/m2 CLR
03:53 5.6 °F -1.2 °F 30.80 in Calm     73% 0.00 in 0.0 W/m2 CLR
03:54 5.5 °F -1.3 °F 30.80 in Calm     73% 0.00 in 0.0 W/m2 CLR
03:58 5.5 °F -1.0 °F 30.80 in Calm     74% 0.00 in 0.0 W/m2 CLR
04:00 5.4 °F -1.1 °F 30.80 in NE 1.2 mph 1.2 mph 74% 0.00 in 0.0 W/m2 CLR
04:05 5.4 °F -1.1 °F 30.80 in NE 2.3 mph 2.3 mph 74% 0.00 in 0.0 W/m2 CLR
04:10 5.4 °F -1.1 °F 30.80 in NE 2.3 mph 2.3 mph 74% 0.00 in 0.0 W/m2 CLR
04:15 5.5 °F -1.0 °F 30.80 in NE 1.2 mph 1.2 mph 74% 0.00 in 0.0 W/m2 CLR
04:16 5.4 °F -1.1 °F 30.80 in NE 1.2 mph 1.2 mph 74% 0.00 in 0.0 W/m2 CLR
04:21 5.4 °F -0.8 °F 30.80 in Calm     75% 0.00 in 0.0 W/m2 CLR
04:24 5.3 °F -0.9 °F 30.80 in Calm     75% 0.00 in 0.0 W/m2 CLR
04:27 5.3 °F -0.6 °F 30.80 in Calm     76% 0.00 in 0.0 W/m2 CLR
04:32 5.2 °F -0.7 °F 30.80 in Calm     76% 0.00 in 0.0 W/m2 CLR
04:33 5.2 °F -0.7 °F 30.80 in Calm     76% 0.00 in 0.0 W/m2 CLR
04:38 5.0 °F -0.9 °F 30.80 in Calm     76% 0.00 in 0.0 W/m2 CLR
04:40 5.0 °F -0.6 °F 30.80 in Calm     77% 0.00 in 0.0 W/m2 CLR
04:45 5.0 °F -0.6 °F 30.80 in Calm     77% 0.00 in 0.0 W/m2 CLR
04:50 4.9 °F -0.5 °F 30.80 in Calm     78% 0.00 in 0.0 W/m2 CLR
04:51 4.9 °F -0.5 °F 30.80 in Calm     78% 0.00 in 0.0 W/m2 CLR
04:53 4.9 °F -0.5 °F 30.80 in Calm     78% 0.00 in 0.0 W/m2 CLR
04:57 4.8 °F -0.6 °F 30.80 in Calm     78% 0.00 in 0.0 W/m2 CLR
05:02 4.8 °F -0.3 °F 30.80 in Calm     79% 0.00 in 0.0 W/m2 CLR
05:05 4.7 °F -0.4 °F 30.80 in Calm   0.1 mph 79% 0.00 in 0.0 W/m2 CLR
05:07 4.6 °F -0.5 °F 30.80 in Calm     79% 0.00 in 0.0 W/m2 CLR
05:12 4.5 °F -0.6 °F 30.80 in NE 1.2 mph 1.2 mph 79% 0.00 in 0.0 W/m2 CLR
05:14 4.5 °F -0.6 °F 30.80 in NE 1.2 mph 1.2 mph 79% 0.00 in 0.0 W/m2 CLR
05:19 4.4 °F -0.4 °F 30.80 in NE 2.0 mph 2.0 mph 80% 0.00 in 0.0 W/m2 CLR
05:24 4.3 °F -0.5 °F 30.80 in NE 2.3 mph 2.3 mph 80% 0.00 in 0.0 W/m2 CLR
05:26 4.3 °F -0.5 °F 30.80 in NE 2.3 mph 2.3 mph 80% 0.00 in 0.0 W/m2 CLR
05:31 4.3 °F -0.5 °F 30.79 in NE 2.3 mph 2.3 mph 80% 0.00 in 0.0 W/m2 CLR
05:32 4.3 °F -0.5 °F 30.79 in NE 2.3 mph 2.3 mph 80% 0.00 in 0.0 W/m2 CLR
05:37 4.4 °F -0.7 °F 30.79 in NE 3.5 mph 3.5 mph 79% 0.00 in 0.0 W/m2 CLR
05:42 4.4 °F -0.7 °F 30.79 in NE 3.5 mph 3.5 mph 79% 0.00 in 0.0 W/m2 CLR
05:46 4.4 °F -0.7 °F 30.79 in NE 3.5 mph 3.5 mph 79% 0.00 in 0.0 W/m2 CLR
05:49 4.4 °F -0.7 °F 30.79 in NE 4.6 mph 4.6 mph 79% 0.00 in 0.0 W/m2 CLR
05:53 4.4 °F -0.7 °F 30.79 in NNE 4.6 mph 4.6 mph 79% 0.00 in 0.0 W/m2 CLR
05:55 4.4 °F -0.7 °F 30.79 in NE 3.5 mph 3.5 mph 79% 0.00 in 0.0 W/m2 CLR
05:59 4.4 °F -0.7 °F 30.79 in NE 3.5 mph 3.5 mph 79% 0.00 in 0.0 W/m2 CLR
06:00 4.4 °F -0.7 °F 30.79 in NE 3.5 mph 3.5 mph 79% 0.00 in 0.0 W/m2 CLR
06:05 4.3 °F -0.8 °F 30.79 in NE 3.5 mph 3.5 mph 79% 0.00 in 0.0 W/m2 CLR
06:06 4.4 °F -0.7 °F 30.79 in NE 5.0 mph 5.0 mph 79% 0.00 in 0.0 W/m2 CLR
06:08 4.4 °F -0.7 °F 30.79 in NE 5.0 mph 5.0 mph 79% 0.00 in 0.0 W/m2 CLR
06:11 4.4 °F -0.9 °F 30.79 in NE 3.5 mph 3.5 mph 78% 0.00 in 0.0 W/m2 CLR
06:18 4.4 °F -0.9 °F 30.79 in NNE 5.0 mph 5.0 mph 78% 0.00 in 0.0 W/m2 CLR
06:23 4.4 °F -0.9 °F 30.80 in NE 4.6 mph 4.6 mph 78% 0.00 in 0.0 W/m2 CLR
06:24 4.4 °F -0.9 °F 30.80 in NE 3.5 mph 3.5 mph 78% 0.00 in 0.0 W/m2 CLR
06:26 4.4 °F -0.9 °F 30.80 in NE 2.3 mph 2.3 mph 78% 0.00 in 0.0 W/m2 CLR
06:30 4.4 °F -0.9 °F 30.80 in NE 3.5 mph 3.5 mph 78% 0.00 in 0.0 W/m2 CLR
06:35 4.4 °F -0.9 °F 30.80 in NE 2.3 mph 2.3 mph 78% 0.00 in 0.0 W/m2 CLR
06:40 4.4 °F -0.9 °F 30.81 in NNE 2.3 mph 2.3 mph 78% 0.00 in 0.0 W/m2 CLR
06:41 4.4 °F -0.9 °F 30.81 in NNE 3.5 mph 3.5 mph 78% 0.00 in 0.0 W/m2 CLR
06:42 4.4 °F -0.9 °F 30.81 in NNE 3.5 mph 3.5 mph 78% 0.00 in 0.0 W/m2 CLR
06:47 4.4 °F -0.9 °F 30.81 in NNE 2.3 mph 2.3 mph 78% 0.00 in 0.0 W/m2 CLR
06:49 4.4 °F -0.9 °F 30.81 in NNE 3.5 mph 3.5 mph 78% 0.00 in 0.0 W/m2 CLR
06:54 4.5 °F -0.8 °F 30.81 in NNE 2.3 mph 2.3 mph 78% 0.00 in 0.0 W/m2 CLR
06:55 4.5 °F -0.8 °F 30.81 in NNE 2.3 mph 2.3 mph 78% 0.00 in 0.0 W/m2 CLR
07:02 4.5 °F -0.8 °F 30.81 in NNE 2.3 mph 2.3 mph 78% 0.00 in 0.0 W/m2 CLR
07:07 4.5 °F -0.8 °F 30.81 in NNE 2.3 mph   78% 0.00 in 5.0 W/m2 CLR
07:08 4.5 °F -0.8 °F 30.81 in Calm     78% 0.00 in 7.0 W/m2 CLR
07:13 4.4 °F -0.9 °F 30.81 in Calm     78% 0.00 in 9.0 W/m2 CLR
07:17 4.4 °F -0.7 °F 30.81 in Calm     79% 0.00 in 11.0 W/m2 CLR
07:19 4.4 °F -0.7 °F 30.82 in NNE 1.2 mph 1.2 mph 79% 0.00 in 11.0 W/m2 CLR
07:24 4.4 °F -0.7 °F 30.81 in Calm     79% 0.00 in 14.0 W/m2 CLR
07:29 4.4 °F -0.7 °F 30.81 in NNE 1.2 mph 1.2 mph 79% 0.00 in 18.0 W/m2 CLR
07:37 4.4 °F -0.7 °F 30.82 in NNE 1.2 mph 1.2 mph 79% 0.00 in 19.0 W/m2 CLR
07:40 4.5 °F -0.3 °F 30.82 in NNE 2.3 mph 2.3 mph 80% 0.00 in 21.0 W/m2 CLR
07:44 4.6 °F -0.5 °F 30.82 in NNE 2.3 mph 2.3 mph 79% 0.00 in 25.0 W/m2 CLR
07:46 4.6 °F -0.5 °F 30.82 in NNE 2.3 mph 2.3 mph 79% 0.00 in 25.0 W/m2 CLR
07:51 4.6 °F -0.5 °F 30.82 in NNE 1.2 mph 1.2 mph 79% 0.00 in 30.0 W/m2 CLR
07:52 4.6 °F -0.5 °F 30.82 in NNE 1.2 mph 1.2 mph 79% 0.00 in 28.0 W/m2 CLR
07:55 4.6 °F -0.5 °F 30.82 in NNE 2.0 mph 2.0 mph 79% 0.00 in 30.0 W/m2 CLR
07:57 4.7 °F -0.4 °F 30.82 in NNE 1.2 mph   79% 0.00 in 37.0 W/m2 CLR
08:02 4.9 °F -0.2 °F 30.82 in NNE 2.3 mph 2.3 mph 79% 0.00 in 49.0 W/m2 CLR
08:03 5.0 °F -0.1 °F 30.82 in NNE 1.0 mph 1.0 mph 79% 0.00 in 39.0 W/m2 CLR
08:07 5.2 °F 0.1 °F 30.82 in NNE 2.3 mph 2.3 mph 79% 0.00 in 37.0 W/m2 CLR
08:12 5.8 °F 0.4 °F 30.81 in ENE 3.5 mph 3.5 mph 78% 0.00 in 54.0 W/m2 CLR
08:13 6.0 °F 0.3 °F 30.81 in ENE 4.6 mph 4.6 mph 77% 0.00 in 60.0 W/m2 CLR
08:18 6.5 °F 0.5 °F 30.82 in ENE 3.5 mph 3.5 mph 76% 0.00 in 53.0 W/m2 CLR
08:24 6.8 °F 0.3 °F 30.81 in ENE 6.9 mph 6.9 mph 74% 0.00 in 56.0 W/m2 CLR
08:25 6.8 °F 0.3 °F 30.81 in NE 6.9 mph 6.9 mph 74% 0.00 in 53.0 W/m2 CLR
08:29 6.9 °F 0.4 °F 30.81 in ENE 5.8 mph 5.8 mph 74% 0.00 in 88.0 W/m2 CLR
08:34 7.0 °F 0.5 °F 30.81 in ENE 4.6 mph 4.6 mph 74% 0.00 in 105.0 W/m2 CLR
08:41 7.4 °F 0.6 °F 30.81 in ENE 5.8 mph 5.8 mph 73% 0.00 in 58.0 W/m2 CLR
08:42 7.5 °F 0.7 °F 30.81 in NE 4.6 mph 4.6 mph 73% 0.00 in 76.0 W/m2 CLR
08:43 7.4 °F 0.6 °F 30.81 in ENE 5.0 mph 5.0 mph 73% 0.00 in 81.0 W/m2 CLR
08:48 7.5 °F 0.7 °F 30.81 in NE 4.6 mph 4.6 mph 73% 0.00 in 153.0 W/m2 CLR
08:49 7.6 °F 0.7 °F 30.81 in NE 3.5 mph 3.5 mph 73% 0.00 in 79.0 W/m2 CLR
08:54 8.0 °F 1.1 °F 30.81 in NE 5.0 mph 5.0 mph 73% 0.00 in 141.0 W/m2 CLR
08:59 8.1 °F 0.6 °F 30.81 in NE 4.6 mph 4.6 mph 71% 0.00 in 46.0 W/m2 CLR
09:00 8.2 °F 0.7 °F 30.81 in NE 4.0 mph 4.0 mph 71% 0.00 in 46.0 W/m2 CLR
09:05 8.3 °F 0.8 °F 30.81 in ENE 8.1 mph 8.1 mph 71% 0.00 in 142.0 W/m2 CLR
09:06 8.4 °F 0.9 °F 30.81 in ENE 4.6 mph 4.6 mph 71% 0.00 in 121.0 W/m2 CLR
09:07 8.4 °F 0.9 °F 30.81 in ENE 3.5 mph 3.5 mph 71% 0.00 in 111.0 W/m2 CLR
09:12 8.7 °F 1.2 °F 30.81 in NNE 6.9 mph 6.9 mph 71% 0.00 in 304.0 W/m2 CLR
09:22 9.3 °F 1.5 °F 30.81 in NNE 5.8 mph 5.8 mph 70% 0.00 in 56.0 W/m2 CLR
09:28 9.5 °F 1.4 °F 30.81 in NE 3.5 mph 3.5 mph 69% 0.00 in 141.0 W/m2 CLR
09:33 9.8 °F 1.7 °F 30.81 in East 3.5 mph 3.5 mph 69% 0.00 in 265.0 W/m2 CLR
09:35 10.0 °F 2.2 °F 30.81 in East 3.5 mph 3.5 mph 70% 0.00 in 202.0 W/m2 CLR
09:39 10.3 °F 1.8 °F 30.81 in ESE 3.5 mph 3.5 mph 68% 0.00 in 111.0 W/m2 CLR
09:42 10.5 °F 2.0 °F 30.81 in East 3.5 mph 3.5 mph 68% 0.00 in 181.0 W/m2 CLR
09:45 10.8 °F 2.3 °F 30.81 in East 3.5 mph 3.5 mph 68% 0.00 in 241.0 W/m2 CLR
09:51 10.5 °F 1.4 °F 30.81 in East 3.5 mph 3.5 mph 66% 0.00 in 234.0 W/m2 CLR
09:53 10.5 °F 1.4 °F 30.81 in East 4.6 mph 4.6 mph 66% 0.00 in 139.0 W/m2 CLR
09:59 10.8 °F 1.7 °F 30.81 in East 2.3 mph 2.3 mph 66% 0.00 in 255.0 W/m2 CLR
10:00 10.9 °F 1.8 °F 30.81 in East 3.5 mph 3.5 mph 66% 0.00 in 255.0 W/m2 CLR
10:05 11.3 °F 1.8 °F 30.81 in East 2.3 mph 2.3 mph 65% 0.00 in 308.0 W/m2 CLR
10:08 11.5 °F 2.0 °F 30.81 in East 3.5 mph 3.5 mph 65% 0.00 in 308.0 W/m2 CLR
10:11 11.6 °F 1.8 °F 30.80 in East 3.5 mph 3.5 mph 64% 0.00 in 360.0 W/m2 CLR
10:13 11.7 °F 1.9 °F 30.80 in East 2.0 mph 2.0 mph 64% 0.00 in 294.0 W/m2 CLR
10:18 12.1 °F 2.2 °F 30.80 in East 3.5 mph 3.5 mph 64% 0.00 in 367.0 W/m2 CLR
10:19 12.2 °F 2.3 °F 30.80 in East 3.5 mph 3.5 mph 64% 0.00 in 367.0 W/m2 CLR
10:24 12.1 °F 1.6 °F 30.79 in East 2.3 mph 2.3 mph 62% 0.00 in 239.0 W/m2 CLR
10:26 12.2 °F 2.0 °F 30.79 in East 3.5 mph 3.5 mph 63% 0.00 in 330.0 W/m2 CLR
10:27 12.3 °F 2.1 °F 30.79 in East 3.5 mph 3.5 mph 63% 0.00 in 410.0 W/m2 CLR
10:33 13.2 °F 2.9 °F 30.79 in NE 3.5 mph 3.5 mph 63% 0.00 in 360.0 W/m2 CLR
10:34 13.4 °F 3.1 °F 30.79 in NNE 3.5 mph 3.5 mph 63% 0.00 in 272.0 W/m2 CLR
10:39 14.0 °F 3.4 °F 30.79 in ENE 3.0 mph 3.0 mph 62% 0.00 in 345.0 W/m2 CLR
10:43 14.1 °F 3.1 °F 30.79 in East 2.3 mph 2.3 mph 61% 0.00 in 255.0 W/m2 CLR
10:46 14.2 °F 3.2 °F 30.79 in East 3.5 mph 3.5 mph 61% 0.00 in 269.0 W/m2 CLR
10:51 14.2 °F 3.2 °F 30.78 in WSW 3.5 mph 3.5 mph 61% 0.00 in 320.0 W/m2 CLR
10:52 14.1 °F 3.1 °F 30.78 in WSW 3.5 mph 3.5 mph 61% 0.00 in 313.0 W/m2 CLR
10:53 14.1 °F 3.1 °F 30.78 in WSW 3.5 mph 3.5 mph 61% 0.00 in 272.0 W/m2 CLR
10:58 14.6 °F 3.2 °F 30.78 in North 3.5 mph 3.5 mph 60% 0.00 in 350.0 W/m2 CLR
11:00 14.6 °F 2.9 °F 30.78 in North 3.5 mph 3.5 mph 59% 0.00 in 385.0 W/m2 CLR
11:05 14.6 °F 2.9 °F 30.78 in West 3.0 mph 3.0 mph 59% 0.00 in 487.0 W/m2 CLR
11:07 14.7 °F 3.3 °F 30.78 in West 5.8 mph 5.8 mph 60% 0.00 in 476.0 W/m2 CLR
11:12 14.7 °F 2.9 °F 30.77 in NNE 5.0 mph 5.0 mph 59% 0.00 in 436.0 W/m2 CLR
11:13 14.9 °F 3.1 °F 30.77 in NNE 5.8 mph 5.8 mph 59% 0.00 in 480.0 W/m2 CLR
11:19 15.5 °F 3.0 °F 30.76 in NNE 3.5 mph 3.5 mph 57% 0.00 in 469.0 W/m2 CLR
11:22 15.9 °F 3.3 °F 30.77 in NNE 3.5 mph 3.5 mph 57% 0.00 in 522.0 W/m2 CLR
11:24 16.4 °F 3.8 °F 30.76 in NNE 2.3 mph 2.3 mph 57% 0.00 in 520.0 W/m2 CLR
11:28 16.7 °F 3.3 °F 30.76 in NNE 3.5 mph 3.5 mph 55% 0.00 in 520.0 W/m2 CLR
11:33 16.7 °F 3.7 °F 30.75 in East 3.5 mph 3.5 mph 56% 0.00 in 473.0 W/m2 CLR
11:35 16.7 °F 3.3 °F 30.75 in ESE 3.5 mph 3.5 mph 55% 0.00 in 529.0 W/m2 CLR
11:37 16.7 °F 3.3 °F 30.75 in ESE 2.3 mph 2.3 mph 55% 0.00 in 439.0 W/m2 CLR
11:40 16.8 °F 3.4 °F 30.75 in ESE 1.2 mph 1.2 mph 55% 0.00 in 483.0 W/m2 CLR
11:46 16.7 °F 3.3 °F 30.74 in West 3.5 mph 3.5 mph 55% 0.00 in 457.0 W/m2 CLR
11:48 16.8 °F 3.4 °F 30.74 in West 3.5 mph 3.5 mph 55% 0.00 in 452.0 W/m2 CLR
11:52 17.4 °F 3.6 °F 30.74 in WNW 3.5 mph 3.5 mph 54% 0.00 in 512.0 W/m2 CLR
11:57 17.4 °F 3.6 °F 30.73 in West 3.5 mph 3.5 mph 54% 0.00 in 487.0 W/m2 CLR
11:58 17.4 °F 4.0 °F 30.73 in West 3.5 mph 3.5 mph 55% 0.00 in 483.0 W/m2 CLR
12:04 17.5 °F 3.7 °F 30.72 in East 4.0 mph 4.0 mph 54% 0.00 in 513.0 W/m2 CLR
12:06 17.5 °F 3.7 °F 30.72 in ENE 6.9 mph 6.9 mph 54% 0.00 in 531.0 W/m2 CLR
12:09 17.4 °F 3.2 °F 30.72 in ENE 4.6 mph 4.6 mph 53% 0.00 in 508.0 W/m2 CLR
12:15 17.9 °F 4.0 °F 30.71 in ENE 4.6 mph 4.6 mph 54% 0.00 in 534.0 W/m2 CLR
12:16 18.1 °F 3.8 °F 30.71 in ENE 3.5 mph 3.5 mph 53% 0.00 in 531.0 W/m2 CLR
12:21 18.7 °F 4.4 °F 30.71 in ENE 2.3 mph 2.3 mph 53% 0.00 in 482.0 W/m2 CLR
12:27 19.5 °F 4.7 °F 30.71 in ENE 3.5 mph 3.5 mph 52% 0.00 in 362.0 W/m2 CLR
12:29 19.6 °F 3.9 °F 30.71 in ENE 3.5 mph 3.5 mph 50% 0.00 in 362.0 W/m2 CLR
12:33 19.7 °F 4.0 °F 30.70 in NNW 3.5 mph 3.5 mph 50% 0.00 in 385.0 W/m2 CLR
12:38 20.1 °F 4.8 °F 30.70 in NE 2.3 mph 2.3 mph 51% 0.00 in 425.0 W/m2 CLR
12:40 20.4 °F 4.7 °F 30.70 in NNE 5.0 mph 5.0 mph 50% 0.00 in 432.0 W/m2 CLR
12:44 20.6 °F 4.0 °F 30.69 in NE 4.6 mph 4.6 mph 48% 0.00 in 480.0 W/m2 CLR
12:45 20.5 °F 3.9 °F 30.69 in ENE 4.6 mph 4.6 mph 48% 0.00 in 545.0 W/m2 CLR
12:50 20.3 °F 4.2 °F 30.69 in WNW 6.9 mph 6.9 mph 49% 0.00 in 526.0 W/m2 CLR
12:52 20.5 °F 4.3 °F 30.69 in West 3.5 mph 3.5 mph 49% 0.00 in 520.0 W/m2 CLR
12:57 20.5 °F 4.3 °F 30.69 in NNE 2.3 mph 2.3 mph 49% 0.00 in 512.0 W/m2 CLR
12:59 20.5 °F 4.3 °F 30.68 in NE 3.5 mph 3.5 mph 49% 0.00 in 508.0 W/m2 CLR
13:04 20.5 °F 4.8 °F 30.68 in East 3.5 mph 3.5 mph 50% 0.00 in 504.0 W/m2 CLR
13:09 20.8 °F 4.2 °F 30.68 in East 3.5 mph 3.5 mph 48% 0.00 in 429.0 W/m2 CLR
13:10 20.7 °F 4.1 °F 30.68 in East 3.5 mph 3.5 mph 48% 0.00 in 494.0 W/m2 CLR
13:11 20.7 °F 4.5 °F 30.68 in East 3.5 mph 3.5 mph 49% 0.00 in 497.0 W/m2 CLR
13:16 20.7 °F 4.1 °F 30.67 in ENE 3.5 mph 3.5 mph 48% 0.00 in 492.0 W/m2 CLR
13:17 20.8 °F 4.2 °F 30.67 in ENE 3.5 mph 3.5 mph 48% 0.00 in 489.0 W/m2 CLR
13:19 20.9 °F 4.7 °F 30.67 in ENE 3.5 mph 3.5 mph 49% 0.00 in 487.0 W/m2 CLR
13:22 21.2 °F 4.5 °F 30.66 in ENE 3.5 mph 3.5 mph 48% 0.00 in 485.0 W/m2 CLR
13:24 21.4 °F 4.7 °F 30.66 in ENE 2.3 mph 2.3 mph 48% 0.00 in 413.0 W/m2 CLR
13:29 22.1 °F 4.4 °F 30.66 in ENE 2.3 mph 2.3 mph 46% 0.00 in 383.0 W/m2 CLR
13:32 22.1 °F 4.9 °F 30.66 in ENE 5.0 mph 5.0 mph 47% 0.00 in 281.0 W/m2 CLR
13:37 21.7 °F 4.5 °F 30.66 in ENE 5.8 mph 5.8 mph 47% 0.00 in 183.0 W/m2 CLR
13:41 21.5 °F 4.4 °F 30.65 in ENE 3.5 mph 3.5 mph 47% 0.00 in 345.0 W/m2 CLR
13:43 21.5 °F 4.4 °F 30.65 in ENE 4.6 mph 4.6 mph 47% 0.00 in 401.0 W/m2 CLR
13:46 21.6 °F 4.4 °F 30.65 in NNE 8.1 mph 8.1 mph 47% 0.00 in 457.0 W/m2 CLR
13:51 21.7 °F 4.5 °F 30.65 in ENE 3.5 mph 3.5 mph 47% 0.00 in 431.0 W/m2 CLR
13:53 21.7 °F 4.5 °F 30.65 in ENE 5.0 mph 5.0 mph 47% 0.00 in 429.0 W/m2 CLR
13:56 21.8 °F 4.6 °F 30.64 in East 3.5 mph 3.5 mph 47% 0.00 in 424.0 W/m2 CLR
13:58 22.0 °F 4.3 °F 30.64 in NE 4.6 mph 4.6 mph 46% 0.00 in 417.0 W/m2 CLR
14:03 22.6 °F 5.4 °F 30.64 in NE 3.5 mph 3.5 mph 47% 0.00 in 406.0 W/m2 CLR
14:04 22.7 °F 5.5 °F 30.64 in NE 3.5 mph 3.5 mph 47% 0.00 in 404.0 W/m2 CLR
14:09 23.1 °F 4.4 °F 30.63 in North 3.5 mph 3.5 mph 44% 0.00 in 390.0 W/m2 CLR
14:11 23.1 °F 4.4 °F 30.63 in North 3.5 mph 3.5 mph 44% 0.00 in 390.0 W/m2 CLR
14:17 23.4 °F 4.2 °F 30.62 in NNE 4.6 mph 4.6 mph 43% 0.00 in 371.0 W/m2 CLR
14:22 23.4 °F 4.2 °F 30.62 in NE 3.5 mph 3.5 mph 43% 0.00 in 366.0 W/m2 CLR
14:23 23.4 °F 4.2 °F 30.62 in NE 2.3 mph 2.3 mph 43% 0.00 in 362.0 W/m2 CLR
14:24 23.5 °F 4.2 °F 30.62 in NE 3.5 mph 3.5 mph 43% 0.00 in 362.0 W/m2 CLR
14:28 23.4 °F 4.2 °F 30.62 in NE 4.0 mph 4.0 mph 43% 0.00 in 341.0 W/m2 CLR
14:30 23.4 °F 4.2 °F 30.62 in NNE 3.5 mph 3.5 mph 43% 0.00 in 336.0 W/m2 CLR
14:35 23.5 °F 4.2 °F 30.62 in ENE 3.5 mph 3.5 mph 43% 0.00 in 311.0 W/m2 CLR
14:37 23.6 °F 4.8 °F 30.62 in ENE 4.0 mph 4.0 mph 44% 0.00 in 302.0 W/m2 CLR
14:42 23.5 °F 4.2 °F 30.61 in ENE 3.5 mph 3.5 mph 43% 0.00 in 272.0 W/m2 CLR
14:47 23.0 °F 3.8 °F 30.61 in ENE 2.3 mph 2.3 mph 43% 0.00 in 100.0 W/m2 CLR
14:50 22.9 °F 3.7 °F 30.61 in ENE 2.3 mph 2.3 mph 43% 0.00 in 209.0 W/m2 CLR
14:55 22.9 °F 3.7 °F 30.61 in NNE 5.0 mph 5.0 mph 43% 0.00 in 49.0 W/m2 CLR
14:56 22.9 °F 3.7 °F 30.61 in NE 4.6 mph 4.6 mph 43% 0.00 in 56.0 W/m2 CLR
14:57 22.9 °F 4.2 °F 30.61 in NE 3.5 mph 3.5 mph 44% 0.00 in 63.0 W/m2 CLR
15:02 22.7 °F 3.5 °F 30.61 in NE 3.0 mph 3.0 mph 43% 0.00 in 53.0 W/m2 CLR
15:03 22.7 °F 3.5 °F 30.61 in NE 3.5 mph 3.5 mph 43% 0.00 in 60.0 W/m2 CLR
15:04 22.8 °F 4.1 °F 30.61 in NE 2.3 mph 2.3 mph 44% 0.00 in 60.0 W/m2 CLR
15:09 22.7 °F 3.5 °F 30.60 in ENE 2.3 mph 2.3 mph 43% 0.00 in 90.0 W/m2 CLR
15:10 22.7 °F 4.0 °F 30.60 in ENE 2.3 mph 2.3 mph 44% 0.00 in 105.0 W/m2 CLR
15:13 22.9 °F 4.2 °F 30.60 in Calm   0.4 mph 44% 0.00 in 81.0 W/m2 CLR
15:17 23.0 °F 4.3 °F 30.60 in NE 3.5 mph 3.5 mph 44% 0.00 in 54.0 W/m2 CLR
15:22 23.1 °F 3.9 °F 30.60 in NE 3.0 mph 3.0 mph 43% 0.00 in 97.0 W/m2 CLR
15:23 23.1 °F 3.9 °F 30.60 in NE 3.5 mph 3.5 mph 43% 0.00 in 93.0 W/m2 CLR
15:28 23.0 °F 3.8 °F 30.60 in NE 3.5 mph 3.5 mph 43% 0.00 in 60.0 W/m2 CLR
15:29 23.0 °F 3.8 °F 30.59 in NE 2.3 mph 2.3 mph 43% 0.00 in 39.0 W/m2 CLR
15:31 23.0 °F 3.8 °F 30.59 in Calm     43% 0.00 in 32.0 W/m2 CLR
15:35 23.0 °F 4.3 °F 30.60 in Calm     44% 0.00 in 28.0 W/m2 CLR
15:40 22.8 °F 4.1 °F 30.59 in NE 3.5 mph 3.5 mph 44% 0.00 in 26.0 W/m2 CLR
15:41 22.7 °F 4.0 °F 30.59 in NE 3.5 mph 3.5 mph 44% 0.00 in 26.0 W/m2 CLR
15:46 22.4 °F 4.2 °F 30.59 in NE 3.5 mph 3.5 mph 45% 0.00 in 26.0 W/m2 CLR
15:49 22.3 °F 4.1 °F 30.59 in NE 2.3 mph 2.3 mph 45% 0.00 in 30.0 W/m2 CLR
15:54 22.1 °F 4.0 °F 30.59 in NE 2.3 mph 2.3 mph 45% 0.00 in 26.0 W/m2 CLR
15:56 22.1 °F 4.0 °F 30.59 in NE 1.2 mph   45% 0.00 in 25.0 W/m2 CLR
15:57 22.1 °F 4.0 °F 30.59 in Calm     45% 0.00 in 26.0 W/m2 CLR
16:01 22.0 °F 3.9 °F 30.58 in NE 3.5 mph 3.5 mph 45% 0.00 in 25.0 W/m2 CLR
16:06 21.9 °F 3.8 °F 30.58 in NE 2.3 mph 2.3 mph 45% 0.00 in 25.0 W/m2 CLR
16:08 21.8 °F 3.7 °F 30.58 in NE 3.5 mph 3.5 mph 45% 0.00 in 30.0 W/m2 CLR
16:12 21.8 °F 3.7 °F 30.58 in NE 2.3 mph 2.3 mph 45% 0.00 in 33.0 W/m2 CLR
16:13 21.8 °F 3.7 °F 30.58 in NE 3.5 mph 3.5 mph 45% 0.00 in 30.0 W/m2 CLR
16:18 21.7 °F 3.6 °F 30.57 in NE 3.5 mph 3.5 mph 45% 0.00 in 26.0 W/m2 CLR
16:19 21.7 °F 3.6 °F 30.58 in NE 2.3 mph 2.3 mph 45% 0.00 in 26.0 W/m2 CLR
16:24 21.6 °F 4.0 °F 30.57 in NE 2.3 mph 2.3 mph 46% 0.00 in 25.0 W/m2 CLR
16:28 21.5 °F 3.9 °F 30.57 in NE 3.5 mph 3.5 mph 46% 0.00 in 21.0 W/m2 CLR
16:32 21.4 °F 3.8 °F 30.57 in NE 3.5 mph 3.5 mph 46% 0.00 in 19.0 W/m2 CLR
16:34 21.4 °F 3.8 °F 30.57 in NE 3.5 mph 3.5 mph 46% 0.00 in 18.0 W/m2 CLR
16:39 21.2 °F 3.6 °F 30.57 in ENE 2.3 mph 2.3 mph 46% 0.00 in 14.0 W/m2 CLR
16:40 21.2 °F 3.6 °F 30.57 in ENE 2.3 mph 2.3 mph 46% 0.00 in 14.0 W/m2 CLR
16:42 21.0 °F 3.9 °F 30.57 in ENE 2.3 mph 2.3 mph 47% 0.00 in 12.0 W/m2 CLR
16:47 20.9 °F 3.8 °F 30.57 in ENE 2.3 mph 2.3 mph 47% 0.00 in 5.0 W/m2 CLR
16:48 20.8 °F 3.2 °F 30.57 in ENE 3.5 mph 3.5 mph 46% 0.00 in 5.0 W/m2 CLR
16:54 20.6 °F 2.6 °F 30.57 in ENE 2.3 mph 2.3 mph 45% 0.00 in 0.0 W/m2 CLR
16:56 20.5 °F 3.0 °F 30.57 in ENE 2.3 mph 2.3 mph 46% 0.00 in 0.0 W/m2 CLR
17:00 20.4 °F 2.4 °F 30.57 in ENE 1.2 mph 1.2 mph 45% 0.00 in 0.0 W/m2 CLR
17:03 20.3 °F 2.3 °F 30.57 in ENE 2.3 mph 2.3 mph 45% 0.00 in 0.0 W/m2 CLR
17:05 20.2 °F 2.2 °F 30.57 in ENE 2.3 mph 2.3 mph 45% 0.00 in 0.0 W/m2 CLR
17:10 20.1 °F 2.1 °F 30.57 in ENE 2.3 mph 2.3 mph 45% 0.00 in 0.0 W/m2 CLR
17:11 20.0 °F 2.0 °F 30.57 in ENE 2.3 mph 2.3 mph 45% 0.00 in 0.0 W/m2 CLR
17:12 20.0 °F 2.0 °F 30.57 in ENE 1.2 mph 1.2 mph 45% 0.00 in 0.0 W/m2 CLR
17:19 19.9 °F 2.4 °F 30.57 in Calm     46% 0.00 in 0.0 W/m2 CLR
17:23 19.8 °F 2.8 °F 30.57 in Calm     47% 0.00 in 0.0 W/m2 CLR
17:30 19.6 °F 3.1 °F 30.57 in Calm     48% 0.00 in 0.0 W/m2 CLR
17:31 19.5 °F 2.5 °F 30.57 in Calm     47% 0.00 in 0.0 W/m2 CLR
17:35 19.4 °F 2.4 °F 30.57 in Calm     47% 0.00 in 0.0 W/m2 CLR
17:39 19.2 °F 3.1 °F 30.57 in Calm     49% 0.00 in 0.0 W/m2 CLR
17:40 19.2 °F 3.1 °F 30.57 in Calm     49% 0.00 in 0.0 W/m2 CLR
17:44 19.1 °F 2.6 °F 30.56 in ENE 2.3 mph 2.3 mph 48% 0.00 in 0.0 W/m2 CLR
17:48 19.0 °F 2.5 °F 30.56 in ENE 1.2 mph 1.2 mph 48% 0.00 in 0.0 W/m2 CLR
17:53 18.9 °F 2.4 °F 30.56 in ENE 2.3 mph 2.3 mph 48% 0.00 in 0.0 W/m2 CLR
17:54 18.9 °F 2.4 °F 30.56 in ENE 2.3 mph 2.3 mph 48% 0.00 in 0.0 W/m2 CLR
17:59 18.8 °F 2.8 °F 30.56 in ENE 1.0 mph 1.0 mph 49% 0.00 in 0.0 W/m2 CLR
18:03 18.7 °F 2.2 °F 30.55 in ENE 1.2 mph 1.2 mph 48% 0.00 in 0.0 W/m2 CLR
18:09 18.6 °F 2.6 °F 30.55 in Calm     49% 0.00 in 0.0 W/m2 CLR
18:12 18.5 °F 2.5 °F 30.55 in Calm     49% 0.00 in 0.0 W/m2 CLR
18:16 18.4 °F 2.8 °F 30.55 in Calm     50% 0.00 in 0.0 W/m2 CLR
18:19 18.3 °F 3.2 °F 30.55 in Calm     51% 0.00 in 0.0 W/m2 CLR
18:21 18.3 °F 3.2 °F 30.55 in Calm     51% 0.00 in 0.0 W/m2 CLR
18:24 18.2 °F 3.1 °F 30.55 in Calm     51% 0.00 in 0.0 W/m2 CLR
18:33 18.1 °F 3.4 °F 30.55 in Calm     52% 0.00 in 0.0 W/m2 CLR
18:35 18.0 °F 3.3 °F 30.55 in Calm     52% 0.00 in 0.0 W/m2 CLR
18:36 18.0 °F 3.3 °F 30.55 in Calm     52% 0.00 in 0.0 W/m2 CLR
18:41 17.9 °F 4.8 °F 30.55 in ENE 2.3 mph 2.3 mph 56% 0.00 in 0.0 W/m2 CLR
18:42 17.8 °F 4.7 °F 30.55 in ENE 2.3 mph 2.3 mph 56% 0.00 in 0.0 W/m2 CLR
18:46 17.5 °F 4.8 °F 30.54 in ENE 1.2 mph   57% 0.00 in 0.0 W/m2 CLR
18:49 17.4 °F 5.1 °F 30.54 in Calm     58% 0.00 in 0.0 W/m2 CLR
18:54 17.3 °F 4.7 °F 30.54 in ENE 1.2 mph 1.2 mph 57% 0.00 in 0.0 W/m2 CLR
18:59 17.1 °F 5.2 °F 30.54 in Calm   0.1 mph 59% 0.00 in 0.0 W/m2 CLR
19:04 17.0 °F 5.1 °F 30.54 in Calm     59% 0.00 in 0.0 W/m2 SCT
19:05 17.0 °F 5.1 °F 30.54 in Calm     59% 0.00 in 0.0 W/m2 SCT
19:10 16.8 °F 5.7 °F 30.54 in Calm     61% 0.00 in 0.0 W/m2 SCT
19:14 16.7 °F 5.9 °F 30.54 in Calm     62% 0.00 in 0.0 W/m2 SCT
19:16 16.7 °F 5.9 °F 30.54 in Calm     62% 0.00 in 0.0 W/m2 SCT
19:21 16.5 °F 5.7 °F 30.53 in Calm     62% 0.00 in 0.0 W/m2 SCT
19:26 16.5 °F 5.7 °F 30.53 in Calm     62% 0.00 in 0.0 W/m2 SCT
19:29 16.5 °F 6.1 °F 30.53 in Calm     63% 0.00 in 0.0 W/m2 SCT
19:33 16.4 °F 6.7 °F 30.53 in Calm     65% 0.00 in 0.0 W/m2 SCT
19:35 16.3 °F 6.6 °F 30.53 in Calm     65% 0.00 in 0.0 W/m2 SCT
19:39 16.3 °F 6.9 °F 30.53 in Calm     66% 0.00 in 0.0 W/m2 SCT
19:42 16.2 °F 6.8 °F 30.53 in Calm     66% 0.00 in 0.0 W/m2 SCT
19:47 16.1 °F 6.4 °F 30.52 in Calm     65% 0.00 in 0.0 W/m2 SCT
19:48 16.1 °F 6.4 °F 30.52 in Calm     65% 0.00 in 0.0 W/m2 SCT
19:53 16.0 °F 6.6 °F 30.52 in Calm     66% 0.00 in 0.0 W/m2 SCT
19:56 16.0 °F 6.6 °F 30.52 in Calm     66% 0.00 in 0.0 W/m2 SCT
20:01 15.9 °F 6.9 °F 30.52 in Calm     67% 0.00 in 0.0 W/m2 CLR
20:03 15.9 °F 6.9 °F 30.52 in Calm     67% 0.00 in 0.0 W/m2 CLR
20:07 15.8 °F 6.8 °F 30.52 in Calm     67% 0.00 in 0.0 W/m2 CLR
20:08 15.8 °F 6.8 °F 30.52 in Calm     67% 0.00 in 0.0 W/m2 CLR
20:13 15.7 °F 6.7 °F 30.52 in Calm     67% 0.00 in 0.0 W/m2 CLR
20:14 15.7 °F 6.7 °F 30.52 in Calm     67% 0.00 in 0.0 W/m2 CLR
20:17 15.7 °F 7.0 °F 30.52 in Calm     68% 0.00 in 0.0 W/m2 CLR
20:20 15.6 °F 6.9 °F 30.52 in Calm     68% 0.00 in 0.0 W/m2 CLR
20:23 15.6 °F 7.2 °F 30.52 in Calm     69% 0.00 in 0.0 W/m2 CLR
20:26 15.6 °F 7.2 °F 30.51 in Calm     69% 0.00 in 0.0 W/m2 CLR
20:28 15.6 °F 7.2 °F 30.51 in Calm     69% 0.00 in 0.0 W/m2 CLR
20:32 15.6 °F 7.2 °F 30.51 in Calm     69% 0.00 in 0.0 W/m2 CLR
20:35 15.6 °F 7.6 °F 30.52 in Calm     70% 0.00 in 0.0 W/m2 CLR
20:40 15.6 °F 7.9 °F 30.52 in Calm     71% 0.00 in 0.0 W/m2 CLR
20:41 15.6 °F 7.9 °F 30.52 in Calm     71% 0.00 in 0.0 W/m2 CLR
20:46 15.7 °F 7.6 °F 30.51 in Calm     70% 0.00 in 0.0 W/m2 CLR
20:51 15.7 °F 8.0 °F 30.51 in Calm     71% 0.00 in 0.0 W/m2 CLR
20:54 15.8 °F 8.4 °F 30.51 in Calm     72% 0.00 in 0.0 W/m2 CLR
20:59 15.8 °F 9.0 °F 30.50 in Calm     74% 0.00 in 0.0 W/m2 CLR
21:00 15.8 °F 9.3 °F 30.50 in Calm     75% 0.00 in 0.0 W/m2 CLR
21:02 15.8 °F 9.3 °F 30.50 in Calm     75% 0.00 in 0.0 W/m2 CLR
21:05 15.8 °F 9.3 °F 30.50 in Calm     75% 0.00 in 0.0 W/m2 CLR
21:10 15.8 °F 9.6 °F 30.50 in Calm     76% 0.00 in 0.0 W/m2 CLR
21:14 15.8 °F 9.6 °F 30.50 in Calm     76% 0.00 in 0.0 W/m2 CLR
21:19 15.8 °F 10.2 °F 30.50 in Calm     78% 0.00 in 0.0 W/m2 CLR
21:24 15.8 °F 9.9 °F 30.50 in Calm     77% 0.00 in 0.0 W/m2 CLR
21:29 15.8 °F 9.9 °F 30.50 in Calm     77% 0.00 in 0.0 W/m2 CLR
21:30 15.9 °F 10.0 °F 30.50 in Calm     77% 0.00 in 0.0 W/m2 CLR
21:35 16.1 °F 10.4 °F 30.50 in Calm     78% 0.00 in 0.0 W/m2 CLR
21:39 16.2 °F 10.3 °F 30.50 in Calm     77% 0.00 in 0.0 W/m2 CLR
21:44 16.3 °F 10.4 °F 30.49 in Calm     77% 0.00 in 0.0 W/m2 CLR
21:47 16.3 °F 10.4 °F 30.49 in Calm     77% 0.00 in 0.0 W/m2 CLR
21:48 16.3 °F 10.4 °F 30.49 in Calm     77% 0.00 in 0.0 W/m2 CLR
21:53 16.4 °F 10.7 °F 30.49 in Calm     78% 0.00 in 0.0 W/m2 CLR
21:54 16.4 °F 11.0 °F 30.49 in Calm     79% 0.00 in 0.0 W/m2 CLR
21:57 16.4 °F 11.0 °F 30.48 in Calm     79% 0.00 in 0.0 W/m2 CLR
21:59 16.4 °F 11.0 °F 30.49 in Calm     79% 0.00 in 0.0 W/m2 CLR
22:02 16.4 °F 11.0 °F 30.48 in Calm     79% 0.00 in 0.0 W/m2 CLR
22:05 16.4 °F 11.0 °F 30.49 in Calm     79% 0.00 in 0.0 W/m2 CLR
22:10 16.4 °F 11.0 °F 30.48 in Calm     79% 0.00 in 0.0 W/m2 CLR
22:15 16.4 °F 11.3 °F 30.48 in Calm     80% 0.00 in 0.0 W/m2 CLR
22:21 16.4 °F 11.3 °F 30.48 in Calm     80% 0.00 in 0.0 W/m2 CLR
22:26 16.3 °F 10.9 °F 30.48 in Calm     79% 0.00 in 0.0 W/m2 CLR
22:27 16.3 °F 10.9 °F 30.48 in Calm     79% 0.00 in 0.0 W/m2 CLR
22:30 16.3 °F 11.2 °F 30.48 in Calm     80% 0.00 in 0.0 W/m2 CLR
22:33 16.3 °F 11.2 °F 30.48 in Calm     80% 0.00 in 0.0 W/m2 CLR
22:38 16.3 °F 10.9 °F 30.48 in Calm     79% 0.00 in 0.0 W/m2 CLR
22:39 16.3 °F 10.9 °F 30.48 in Calm     79% 0.00 in 0.0 W/m2 CLR
22:45 16.3 °F 11.2 °F 30.47 in Calm     80% 0.00 in 0.0 W/m2 CLR
22:50 16.4 °F 11.3 °F 30.47 in Calm     80% 0.00 in 0.0 W/m2 CLR
22:55 16.4 °F 11.6 °F 30.47 in Calm     81% 0.00 in 0.0 W/m2 CLR
22:57 16.5 °F 11.7 °F 30.47 in Calm     81% 0.00 in 0.0 W/m2 CLR
23:02 16.5 °F 11.7 °F 30.47 in Calm     81% 0.00 in 0.0 W/m2 CLR
23:03 16.5 °F 11.7 °F 30.47 in Calm     81% 0.00 in 0.0 W/m2 CLR
23:04 16.5 °F 11.7 °F 30.47 in Calm     81% 0.00 in 0.0 W/m2 CLR
23:09 16.5 °F 11.7 °F 30.46 in Calm     81% 0.00 in 0.0 W/m2 CLR
23:12 16.5 °F 11.4 °F 30.46 in Calm     80% 0.00 in 0.0 W/m2 CLR
23:16 16.5 °F 11.4 °F 30.46 in Calm     80% 0.00 in 0.0 W/m2 CLR
23:21 16.4 °F 11.6 °F 30.46 in Calm     81% 0.00 in 0.0 W/m2 CLR
23:23 16.4 °F 11.3 °F 30.46 in Calm     80% 0.00 in 0.0 W/m2 CLR
23:26 16.4 °F 11.6 °F 30.46 in Calm     81% 0.00 in 0.0 W/m2 CLR
23:31 16.4 °F 11.6 °F 30.46 in Calm     81% 0.00 in 0.0 W/m2 CLR
23:36 16.4 °F 11.6 °F 30.45 in ENE 1.2 mph 1.2 mph 81% 0.00 in 0.0 W/m2 CLR
23:42 16.4 °F 11.6 °F 30.45 in Calm     81% 0.00 in 0.0 W/m2 CLR
23:43 16.4 °F 11.6 °F 30.45 in ENE 1.2 mph 1.2 mph 81% 0.00 in 0.0 W/m2 CLR
23:48 16.4 °F 11.9 °F 30.44 in ENE 1.2 mph 1.2 mph 82% 0.00 in 0.0 W/m2 CLR
23:49 16.4 °F 11.9 °F 30.44 in ENE 2.3 mph 2.3 mph 82% 0.00 in 0.0 W/m2 CLR
23:55 16.3 °F 11.5 °F 30.44 in Calm     81% 0.00 in 0.0 W/m2 CLR
23:56 16.3 °F 11.5 °F 30.44 in Calm     81% 0.00 in 0.0 W/m2 CLR
Bruceton, TN. NWS Weather Forecast
Compliments of:  Weather Underground - 6 mb

Interesting Weather Facts
EARTHQUAKE FACT
The largest earthquake in American history, the New Madrid Earthquake occurred in the winter of 1811-12 in northwestern Tennessee. Reelfoot Lake located in Obion and Lake Counties was formed as a result of this earthquake.